sensor_id;sensor_type;location;lat;lon;timestamp;temperature;humidity
5940;DHT22;2995;-31.998;115.906;2022-09-09T00:00:49;12.20;99.90
5940;DHT22;2995;-31.998;115.906;2022-09-09T00:03:27;12.40;99.90
5940;DHT22;2995;-31.998;115.906;2022-09-09T00:06:08;12.60;99.90
5940;DHT22;2995;-31.998;115.906;2022-09-09T00:08:52;12.80;99.90
5940;DHT22;2995;-31.998;115.906;2022-09-09T00:11:28;12.90;99.90
5940;DHT22;2995;-31.998;115.906;2022-09-09T00:14:02;13.00;99.90
5940;DHT22;2995;-31.998;115.906;2022-09-09T00:16:37;13.20;99.90
5940;DHT22;2995;-31.998;115.906;2022-09-09T00:19:20;13.30;99.90
5940;DHT22;2995;-31.998;115.906;2022-09-09T00:22:02;13.40;99.90
5940;DHT22;2995;-31.998;115.906;2022-09-09T00:24:44;13.50;99.90
5940;DHT22;2995;-31.998;115.906;2022-09-09T00:27:25;13.60;99.90
5940;DHT22;2995;-31.998;115.906;2022-09-09T00:30:13;13.70;99.90
5940;DHT22;2995;-31.998;115.906;2022-09-09T00:32:47;13.90;99.90
5940;DHT22;2995;-31.998;115.906;2022-09-09T00:35:23;13.90;99.90
5940;DHT22;2995;-31.998;115.906;2022-09-09T00:37:58;14.00;99.90
5940;DHT22;2995;-31.998;115.906;2022-09-09T00:40:35;14.20;99.90
5940;DHT22;2995;-31.998;115.906;2022-09-09T00:43:25;14.30;99.90
5940;DHT22;2995;-31.998;115.906;2022-09-09T00:46:18;14.40;99.90
5940;DHT22;2995;-31.998;115.906;2022-09-09T00:48:59;14.50;99.90
5940;DHT22;2995;-31.998;115.906;2022-09-09T00:51:37;14.60;99.90
5940;DHT22;2995;-31.998;115.906;2022-09-09T00:54:31;14.70;99.90
5940;DHT22;2995;-31.998;115.906;2022-09-09T00:57:19;14.80;99.90
5940;DHT22;2995;-31.998;115.906;2022-09-09T01:00:01;14.90;99.90
5940;DHT22;2995;-31.998;115.906;2022-09-09T01:02:42;14.90;99.90
5940;DHT22;2995;-31.998;115.906;2022-09-09T01:05:27;15.20;99.90
5940;DHT22;2995;-31.998;115.906;2022-09-09T01:08:02;15.20;99.90
5940;DHT22;2995;-31.998;115.906;2022-09-09T01:10:41;15.30;99.90
5940;DHT22;2995;-31.998;115.906;2022-09-09T01:13:22;15.30;99.90
5940;DHT22;2995;-31.998;115.906;2022-09-09T01:15:55;15.40;99.90
5940;DHT22;2995;-31.998;115.906;2022-09-09T01:18:30;15.60;99.90
5940;DHT22;2995;-31.998;115.906;2022-09-09T01:21:08;15.80;99.90
5940;DHT22;2995;-31.998;115.906;2022-09-09T01:23:56;15.80;99.90
5940;DHT22;2995;-31.998;115.906;2022-09-09T01:26:35;16.00;99.90
5940;DHT22;2995;-31.998;115.906;2022-09-09T01:29:09;16.10;99.90
5940;DHT22;2995;-31.998;115.906;2022-09-09T01:31:42;16.10;99.90
5940;DHT22;2995;-31.998;115.906;2022-09-09T01:34:14;16.20;99.90
5940;DHT22;2995;-31.998;115.906;2022-09-09T01:36:47;16.20;99.90
5940;DHT22;2995;-31.998;115.906;2022-09-09T01:39:21;16.30;99.90
5940;DHT22;2995;-31.998;115.906;2022-09-09T01:41:54;16.40;99.90
5940;DHT22;2995;-31.998;115.906;2022-09-09T01:44:27;16.40;99.90
5940;DHT22;2995;-31.998;115.906;2022-09-09T01:46:59;16.40;99.90
5940;DHT22;2995;-31.998;115.906;2022-09-09T01:58:31;16.80;99.90
5940;DHT22;2995;-31.998;115.906;2022-09-09T02:01:10;16.90;99.90
5940;DHT22;2995;-31.998;115.906;2022-09-09T02:03:47;17.00;99.90
5940;DHT22;2995;-31.998;115.906;2022-09-09T02:06:27;17.30;99.90
5940;DHT22;2995;-31.998;115.906;2022-09-09T02:09:01;17.20;99.90
5940;DHT22;2995;-31.998;115.906;2022-09-09T02:11:34;17.30;99.90
5940;DHT22;2995;-31.998;115.906;2022-09-09T02:17:25;17.40;99.90
5940;DHT22;2995;-31.998;115.906;2022-09-09T02:20:04;17.50;99.90
5940;DHT22;2995;-31.998;115.906;2022-09-09T02:22:39;17.60;99.90
5940;DHT22;2995;-31.998;115.906;2022-09-09T02:25:12;17.60;99.90
5940;DHT22;2995;-31.998;115.906;2022-09-09T02:27:46;17.70;99.90
5940;DHT22;2995;-31.998;115.906;2022-09-09T02:30:18;17.80;99.90
5940;DHT22;2995;-31.998;115.906;2022-09-09T02:32:54;17.90;99.90
5940;DHT22;2995;-31.998;115.906;2022-09-09T02:35:27;18.00;99.90
5940;DHT22;2995;-31.998;115.906;2022-09-09T02:38:01;17.90;99.90
5940;DHT22;2995;-31.998;115.906;2022-09-09T02:40:34;18.00;99.90
5940;DHT22;2995;-31.998;115.906;2022-09-09T02:43:06;18.10;99.90
5940;DHT22;2995;-31.998;115.906;2022-09-09T02:45:42;18.20;99.90
5940;DHT22;2995;-31.998;115.906;2022-09-09T02:48:23;18.30;99.90
5940;DHT22;2995;-31.998;115.906;2022-09-09T02:51:02;18.40;99.90
5940;DHT22;2995;-31.998;115.906;2022-09-09T02:53:42;18.60;99.90
5940;DHT22;2995;-31.998;115.906;2022-09-09T02:56:16;18.60;99.90
5940;DHT22;2995;-31.998;115.906;2022-09-09T02:58:50;18.80;99.90
5940;DHT22;2995;-31.998;115.906;2022-09-09T03:01:22;18.80;99.90
5940;DHT22;2995;-31.998;115.906;2022-09-09T03:03:55;18.80;99.90
5940;DHT22;2995;-31.998;115.906;2022-09-09T03:06:27;18.80;99.90
5940;DHT22;2995;-31.998;115.906;2022-09-09T03:08:58;18.80;99.90
5940;DHT22;2995;-31.998;115.906;2022-09-09T03:11:30;18.90;99.90
5940;DHT22;2995;-31.998;115.906;2022-09-09T03:14:02;19.00;99.90
5940;DHT22;2995;-31.998;115.906;2022-09-09T03:16:33;19.00;99.90
5940;DHT22;2995;-31.998;115.906;2022-09-09T03:19:06;19.10;99.90
5940;DHT22;2995;-31.998;115.906;2022-09-09T03:21:37;19.20;99.90
5940;DHT22;2995;-31.998;115.906;2022-09-09T03:24:09;19.20;99.90
5940;DHT22;2995;-31.998;115.906;2022-09-09T03:26:40;19.20;99.90
5940;DHT22;2995;-31.998;115.906;2022-09-09T03:29:13;19.20;99.90
5940;DHT22;2995;-31.998;115.906;2022-09-09T03:31:44;19.30;99.90
5940;DHT22;2995;-31.998;115.906;2022-09-09T03:34:17;19.20;99.90
5940;DHT22;2995;-31.998;115.906;2022-09-09T03:36:49;19.30;99.90
5940;DHT22;2995;-31.998;115.906;2022-09-09T03:39:20;19.40;99.90
5940;DHT22;2995;-31.998;115.906;2022-09-09T03:41:51;19.40;99.90
5940;DHT22;2995;-31.998;115.906;2022-09-09T03:44:22;19.40;99.90
5940;DHT22;2995;-31.998;115.906;2022-09-09T03:46:53;19.40;99.90
5940;DHT22;2995;-31.998;115.906;2022-09-09T03:49:26;19.40;99.90
5940;DHT22;2995;-31.998;115.906;2022-09-09T03:51:58;19.60;99.90
5940;DHT22;2995;-31.998;115.906;2022-09-09T03:54:29;19.70;99.90
5940;DHT22;2995;-31.998;115.906;2022-09-09T03:57:00;19.70;99.90
5940;DHT22;2995;-31.998;115.906;2022-09-09T03:59:32;19.70;99.90
5940;DHT22;2995;-31.998;115.906;2022-09-09T04:02:03;19.80;99.90
5940;DHT22;2995;-31.998;115.906;2022-09-09T04:04:36;19.80;99.90
5940;DHT22;2995;-31.998;115.906;2022-09-09T04:07:08;19.80;99.90
5940;DHT22;2995;-31.998;115.906;2022-09-09T04:09:39;19.90;99.90
5940;DHT22;2995;-31.998;115.906;2022-09-09T04:12:11;19.90;99.90
5940;DHT22;2995;-31.998;115.906;2022-09-09T04:14:42;19.90;99.90
5940;DHT22;2995;-31.998;115.906;2022-09-09T04:17:13;19.80;99.90
5940;DHT22;2995;-31.998;115.906;2022-09-09T04:19:47;19.80;99.90
5940;DHT22;2995;-31.998;115.906;2022-09-09T04:22:18;19.90;99.90
5940;DHT22;2995;-31.998;115.906;2022-09-09T04:24:50;20.00;99.90
5940;DHT22;2995;-31.998;115.906;2022-09-09T04:27:21;20.00;99.90
5940;DHT22;2995;-31.998;115.906;2022-09-09T04:29:52;20.10;99.90
5940;DHT22;2995;-31.998;115.906;2022-09-09T04:32:24;20.30;99.90
5940;DHT22;2995;-31.998;115.906;2022-09-09T04:34:58;20.40;99.90
5940;DHT22;2995;-31.998;115.906;2022-09-09T04:37:29;20.60;99.90
5940;DHT22;2995;-31.998;115.906;2022-09-09T04:40:00;20.50;99.90
5940;DHT22;2995;-31.998;115.906;2022-09-09T04:42:35;20.50;99.90
5940;DHT22;2995;-31.998;115.906;2022-09-09T04:45:08;20.40;99.90
5940;DHT22;2995;-31.998;115.906;2022-09-09T04:47:39;20.30;99.90
5940;DHT22;2995;-31.998;115.906;2022-09-09T04:50:12;20.30;99.90
5940;DHT22;2995;-31.998;115.906;2022-09-09T04:52:43;20.30;99.90
5940;DHT22;2995;-31.998;115.906;2022-09-09T04:55:15;20.20;99.90
5940;DHT22;2995;-31.998;115.906;2022-09-09T04:57:46;20.20;99.90
5940;DHT22;2995;-31.998;115.906;2022-09-09T05:00:17;20.20;99.90
5940;DHT22;2995;-31.998;115.906;2022-09-09T05:02:49;20.10;99.90
5940;DHT22;2995;-31.998;115.906;2022-09-09T05:05:22;20.10;99.90
5940;DHT22;2995;-31.998;115.906;2022-09-09T05:07:53;20.20;99.90
5940;DHT22;2995;-31.998;115.906;2022-09-09T05:10:24;20.10;99.90
5940;DHT22;2995;-31.998;115.906;2022-09-09T05:12:56;20.10;99.90
5940;DHT22;2995;-31.998;115.906;2022-09-09T05:15:27;20.10;99.90
5940;DHT22;2995;-31.998;115.906;2022-09-09T05:17:59;20.10;99.90
5940;DHT22;2995;-31.998;115.906;2022-09-09T05:20:32;20.20;99.90
5940;DHT22;2995;-31.998;115.906;2022-09-09T05:23:04;20.30;99.90
5940;DHT22;2995;-31.998;115.906;2022-09-09T05:25:35;20.30;99.90
5940;DHT22;2995;-31.998;115.906;2022-09-09T05:28:06;20.30;99.90
5940;DHT22;2995;-31.998;115.906;2022-09-09T05:30:39;20.20;99.90
5940;DHT22;2995;-31.998;115.906;2022-09-09T05:33:10;20.20;99.90
5940;DHT22;2995;-31.998;115.906;2022-09-09T05:35:43;20.20;99.90
5940;DHT22;2995;-31.998;115.906;2022-09-09T05:38:14;20.20;99.90
5940;DHT22;2995;-31.998;115.906;2022-09-09T05:40:49;20.10;99.90
5940;DHT22;2995;-31.998;115.906;2022-09-09T05:43:20;20.10;99.90
5940;DHT22;2995;-31.998;115.906;2022-09-09T05:46:01;20.10;99.90
5940;DHT22;2995;-31.998;115.906;2022-09-09T05:48:33;20.10;99.90
5940;DHT22;2995;-31.998;115.906;2022-09-09T05:51:08;20.00;99.90
5940;DHT22;2995;-31.998;115.906;2022-09-09T05:53:41;19.90;99.90
5940;DHT22;2995;-31.998;115.906;2022-09-09T05:56:13;19.90;99.90
5940;DHT22;2995;-31.998;115.906;2022-09-09T05:58:45;19.90;99.90
5940;DHT22;2995;-31.998;115.906;2022-09-09T06:01:18;19.90;99.90
5940;DHT22;2995;-31.998;115.906;2022-09-09T06:03:50;19.90;99.90
5940;DHT22;2995;-31.998;115.906;2022-09-09T06:06:25;20.00;99.90
5940;DHT22;2995;-31.998;115.906;2022-09-09T06:08:57;20.00;99.90
5940;DHT22;2995;-31.998;115.906;2022-09-09T06:11:30;20.10;99.90
5940;DHT22;2995;-31.998;115.906;2022-09-09T06:14:02;20.20;99.90
5940;DHT22;2995;-31.998;115.906;2022-09-09T06:16:33;20.20;99.90
5940;DHT22;2995;-31.998;115.906;2022-09-09T06:19:05;20.30;99.90
5940;DHT22;2995;-31.998;115.906;2022-09-09T06:21:38;20.30;99.90
5940;DHT22;2995;-31.998;115.906;2022-09-09T06:24:10;20.40;99.90
5940;DHT22;2995;-31.998;115.906;2022-09-09T06:26:45;20.40;99.90
5940;DHT22;2995;-31.998;115.906;2022-09-09T06:29:16;20.40;99.90
5940;DHT22;2995;-31.998;115.906;2022-09-09T06:31:47;20.50;99.90
5940;DHT22;2995;-31.998;115.906;2022-09-09T06:34:19;20.60;99.90
5940;DHT22;2995;-31.998;115.906;2022-09-09T06:36:53;20.60;99.90
5940;DHT22;2995;-31.998;115.906;2022-09-09T06:39:25;20.70;99.90
5940;DHT22;2995;-31.998;115.906;2022-09-09T06:41:56;20.70;99.90
5940;DHT22;2995;-31.998;115.906;2022-09-09T06:44:28;20.70;99.90
5940;DHT22;2995;-31.998;115.906;2022-09-09T06:47:01;20.70;99.90
5940;DHT22;2995;-31.998;115.906;2022-09-09T06:49:33;20.70;99.90
5940;DHT22;2995;-31.998;115.906;2022-09-09T06:52:07;20.70;99.90
5940;DHT22;2995;-31.998;115.906;2022-09-09T06:54:38;20.70;99.90
5940;DHT22;2995;-31.998;115.906;2022-09-09T06:57:09;20.70;99.90
5940;DHT22;2995;-31.998;115.906;2022-09-09T06:59:41;20.60;99.90
5940;DHT22;2995;-31.998;115.906;2022-09-09T07:02:12;20.70;99.90
5940;DHT22;2995;-31.998;115.906;2022-09-09T07:04:44;20.70;99.90
5940;DHT22;2995;-31.998;115.906;2022-09-09T07:07:17;20.70;99.90
5940;DHT22;2995;-31.998;115.906;2022-09-09T07:09:48;20.70;99.90
5940;DHT22;2995;-31.998;115.906;2022-09-09T07:12:19;20.70;99.90
5940;DHT22;2995;-31.998;115.906;2022-09-09T07:14:51;20.70;99.90
5940;DHT22;2995;-31.998;115.906;2022-09-09T07:17:22;20.70;99.90
5940;DHT22;2995;-31.998;115.906;2022-09-09T07:19:53;20.70;99.90
5940;DHT22;2995;-31.998;115.906;2022-09-09T07:22:27;20.70;99.90
5940;DHT22;2995;-31.998;115.906;2022-09-09T07:24:59;20.80;99.90
5940;DHT22;2995;-31.998;115.906;2022-09-09T07:27:30;20.70;99.90
5940;DHT22;2995;-31.998;115.906;2022-09-09T07:30:01;20.80;99.90
5940;DHT22;2995;-31.998;115.906;2022-09-09T07:32:32;20.70;99.90
5940;DHT22;2995;-31.998;115.906;2022-09-09T07:35:04;20.70;99.90
5940;DHT22;2995;-31.998;115.906;2022-09-09T07:37:39;20.60;99.90
5940;DHT22;2995;-31.998;115.906;2022-09-09T07:40:11;20.60;99.90
5940;DHT22;2995;-31.998;115.906;2022-09-09T07:42:43;20.50;99.90
5940;DHT22;2995;-31.998;115.906;2022-09-09T07:45:14;20.50;99.90
5940;DHT22;2995;-31.998;115.906;2022-09-09T07:47:46;20.40;99.90
5940;DHT22;2995;-31.998;115.906;2022-09-09T07:50:17;20.40;99.90
5940;DHT22;2995;-31.998;115.906;2022-09-09T07:52:50;20.40;99.90
5940;DHT22;2995;-31.998;115.906;2022-09-09T07:55:22;20.40;99.90
5940;DHT22;2995;-31.998;115.906;2022-09-09T07:57:55;20.40;99.90
5940;DHT22;2995;-31.998;115.906;2022-09-09T08:00:26;20.30;99.90
5940;DHT22;2995;-31.998;115.906;2022-09-09T08:02:57;20.30;99.90
5940;DHT22;2995;-31.998;115.906;2022-09-09T08:05:30;20.20;99.90
5940;DHT22;2995;-31.998;115.906;2022-09-09T08:08:03;20.10;99.90
5940;DHT22;2995;-31.998;115.906;2022-09-09T08:10:34;20.10;99.90
5940;DHT22;2995;-31.998;115.906;2022-09-09T08:13:05;20.00;99.90
5940;DHT22;2995;-31.998;115.906;2022-09-09T08:15:36;20.00;99.90
5940;DHT22;2995;-31.998;115.906;2022-09-09T08:18:08;20.00;99.90
5940;DHT22;2995;-31.998;115.906;2022-09-09T08:20:39;19.90;99.90
5940;DHT22;2995;-31.998;115.906;2022-09-09T08:23:12;19.80;99.90
5940;DHT22;2995;-31.998;115.906;2022-09-09T08:25:43;19.80;99.90
5940;DHT22;2995;-31.998;115.906;2022-09-09T08:28:16;19.70;99.90
5940;DHT22;2995;-31.998;115.906;2022-09-09T08:30:47;19.70;99.90
5940;DHT22;2995;-31.998;115.906;2022-09-09T08:33:21;19.60;99.90
5940;DHT22;2995;-31.998;115.906;2022-09-09T08:35:53;19.60;99.90
5940;DHT22;2995;-31.998;115.906;2022-09-09T08:38:26;19.50;99.90
5940;DHT22;2995;-31.998;115.906;2022-09-09T08:41:04;19.50;99.90
5940;DHT22;2995;-31.998;115.906;2022-09-09T08:43:38;19.50;99.90
5940;DHT22;2995;-31.998;115.906;2022-09-09T08:46:12;19.40;99.90
5940;DHT22;2995;-31.998;115.906;2022-09-09T08:48:52;19.50;99.90
5940;DHT22;2995;-31.998;115.906;2022-09-09T08:51:28;19.50;99.90
5940;DHT22;2995;-31.998;115.906;2022-09-09T08:54:04;19.50;99.90
5940;DHT22;2995;-31.998;115.906;2022-09-09T08:56:37;19.50;99.90
5940;DHT22;2995;-31.998;115.906;2022-09-09T08:59:11;19.40;99.90
5940;DHT22;2995;-31.998;115.906;2022-09-09T09:01:53;19.30;99.90
5940;DHT22;2995;-31.998;115.906;2022-09-09T09:04:47;19.30;99.90
5940;DHT22;2995;-31.998;115.906;2022-09-09T09:07:33;19.20;99.90
5940;DHT22;2995;-31.998;115.906;2022-09-09T09:10:18;19.10;99.90
5940;DHT22;2995;-31.998;115.906;2022-09-09T09:12:50;19.10;99.90
5940;DHT22;2995;-31.998;115.906;2022-09-09T09:15:24;19.10;99.90
5940;DHT22;2995;-31.998;115.906;2022-09-09T09:17:56;19.10;99.90
5940;DHT22;2995;-31.998;115.906;2022-09-09T09:20:34;19.00;99.90
5940;DHT22;2995;-31.998;115.906;2022-09-09T09:23:17;19.00;99.90
5940;DHT22;2995;-31.998;115.906;2022-09-09T09:25:55;19.00;99.90
5940;DHT22;2995;-31.998;115.906;2022-09-09T09:28:29;19.00;99.90
5940;DHT22;2995;-31.998;115.906;2022-09-09T09:31:05;18.90;99.90
5940;DHT22;2995;-31.998;115.906;2022-09-09T09:33:42;18.80;99.90
5940;DHT22;2995;-31.998;115.906;2022-09-09T09:36:15;18.70;99.90
5940;DHT22;2995;-31.998;115.906;2022-09-09T09:38:57;18.70;99.90
5940;DHT22;2995;-31.998;115.906;2022-09-09T09:41:35;18.60;99.90
5940;DHT22;2995;-31.998;115.906;2022-09-09T09:44:24;18.60;99.90
5940;DHT22;2995;-31.998;115.906;2022-09-09T09:47:07;18.50;99.90
5940;DHT22;2995;-31.998;115.906;2022-09-09T09:49:38;18.40;99.90
5940;DHT22;2995;-31.998;115.906;2022-09-09T09:52:20;18.40;99.90
5940;DHT22;2995;-31.998;115.906;2022-09-09T09:54:52;18.40;99.90
5940;DHT22;2995;-31.998;115.906;2022-09-09T09:57:28;18.30;99.90
5940;DHT22;2995;-31.998;115.906;2022-09-09T10:00:12;18.20;99.90
5940;DHT22;2995;-31.998;115.906;2022-09-09T10:02:45;18.20;99.90
5940;DHT22;2995;-31.998;115.906;2022-09-09T10:05:20;18.20;99.90
5940;DHT22;2995;-31.998;115.906;2022-09-09T10:08:03;18.10;99.90
5940;DHT22;2995;-31.998;115.906;2022-09-09T10:10:48;18.10;99.90
5940;DHT22;2995;-31.998;115.906;2022-09-09T10:13:26;18.10;99.90
5940;DHT22;2995;-31.998;115.906;2022-09-09T10:16:08;18.00;99.90
5940;DHT22;2995;-31.998;115.906;2022-09-09T10:18:57;18.00;99.90
5940;DHT22;2995;-31.998;115.906;2022-09-09T10:21:45;17.90;99.90
5940;DHT22;2995;-31.998;115.906;2022-09-09T10:27:36;17.90;99.90
5940;DHT22;2995;-31.998;115.906;2022-09-09T10:30:16;17.80;99.90
5940;DHT22;2995;-31.998;115.906;2022-09-09T10:32:53;17.80;99.90
5940;DHT22;2995;-31.998;115.906;2022-09-09T10:35:29;17.70;99.90
5940;DHT22;2995;-31.998;115.906;2022-09-09T10:38:15;17.60;99.90
5940;DHT22;2995;-31.998;115.906;2022-09-09T10:41:05;17.60;99.90
5940;DHT22;2995;-31.998;115.906;2022-09-09T10:47:03;17.50;99.90
5940;DHT22;2995;-31.998;115.906;2022-09-09T10:49:55;17.50;99.90
5940;DHT22;2995;-31.998;115.906;2022-09-09T10:52:34;17.40;99.90
5940;DHT22;2995;-31.998;115.906;2022-09-09T10:55:11;17.30;99.90
5940;DHT22;2995;-31.998;115.906;2022-09-09T10:57:46;17.30;99.90
5940;DHT22;2995;-31.998;115.906;2022-09-09T11:02:58;17.20;99.90
5940;DHT22;2995;-31.998;115.906;2022-09-09T11:05:34;17.10;99.90
5940;DHT22;2995;-31.998;115.906;2022-09-09T11:08:12;17.10;99.90
5940;DHT22;2995;-31.998;115.906;2022-09-09T11:10:48;17.10;99.90
5940;DHT22;2995;-31.998;115.906;2022-09-09T11:13:26;17.00;99.90
5940;DHT22;2995;-31.998;115.906;2022-09-09T11:16:05;17.00;99.90
5940;DHT22;2995;-31.998;115.906;2022-09-09T11:18:46;17.00;99.90
5940;DHT22;2995;-31.998;115.906;2022-09-09T11:21:20;16.90;99.90
5940;DHT22;2995;-31.998;115.906;2022-09-09T11:23:55;16.90;99.90
5940;DHT22;2995;-31.998;115.906;2022-09-09T11:26:32;16.90;99.90
5940;DHT22;2995;-31.998;115.906;2022-09-09T11:29:17;16.80;99.90
5940;DHT22;2995;-31.998;115.906;2022-09-09T11:32:02;16.80;99.90
5940;DHT22;2995;-31.998;115.906;2022-09-09T11:34:50;16.70;99.90
5940;DHT22;2995;-31.998;115.906;2022-09-09T11:37:36;16.70;99.90
5940;DHT22;2995;-31.998;115.906;2022-09-09T11:40:21;16.60;99.90
5940;DHT22;2995;-31.998;115.906;2022-09-09T11:43:04;16.60;99.90
5940;DHT22;2995;-31.998;115.906;2022-09-09T11:45:37;16.60;99.90
5940;DHT22;2995;-31.998;115.906;2022-09-09T11:48:25;16.50;99.90
5940;DHT22;2995;-31.998;115.906;2022-09-09T11:51:05;16.50;99.90
5940;DHT22;2995;-31.998;115.906;2022-09-09T11:53:46;16.40;99.90
5940;DHT22;2995;-31.998;115.906;2022-09-09T11:56:29;16.40;99.90
5940;DHT22;2995;-31.998;115.906;2022-09-09T11:59:02;16.40;99.90
5940;DHT22;2995;-31.998;115.906;2022-09-09T12:01:39;16.30;99.90
5940;DHT22;2995;-31.998;115.906;2022-09-09T12:04:25;16.30;99.90
5940;DHT22;2995;-31.998;115.906;2022-09-09T12:07:02;16.20;99.90
5940;DHT22;2995;-31.998;115.906;2022-09-09T12:09:41;16.20;99.90
5940;DHT22;2995;-31.998;115.906;2022-09-09T12:12:26;16.20;99.90
5940;DHT22;2995;-31.998;115.906;2022-09-09T12:15:19;16.10;99.90
5940;DHT22;2995;-31.998;115.906;2022-09-09T12:17:51;16.10;99.90
5940;DHT22;2995;-31.998;115.906;2022-09-09T12:20:26;16.10;99.90
5940;DHT22;2995;-31.998;115.906;2022-09-09T12:23:25;16.00;99.90
5940;DHT22;2995;-31.998;115.906;2022-09-09T12:26:15;16.00;99.90
5940;DHT22;2995;-31.998;115.906;2022-09-09T12:28:57;16.00;99.90
5940;DHT22;2995;-31.998;115.906;2022-09-09T12:31:35;15.90;99.90
5940;DHT22;2995;-31.998;115.906;2022-09-09T12:34:15;15.90;99.90
5940;DHT22;2995;-31.998;115.906;2022-09-09T12:36:53;15.90;99.90
5940;DHT22;2995;-31.998;115.906;2022-09-09T12:39:32;15.80;99.90
5940;DHT22;2995;-31.998;115.906;2022-09-09T12:42:04;15.80;99.90
5940;DHT22;2995;-31.998;115.906;2022-09-09T12:44:35;15.80;99.90
5940;DHT22;2995;-31.998;115.906;2022-09-09T12:47:09;15.70;99.90
5940;DHT22;2995;-31.998;115.906;2022-09-09T12:49:41;15.70;99.90
5940;DHT22;2995;-31.998;115.906;2022-09-09T12:52:16;15.70;99.90
5940;DHT22;2995;-31.998;115.906;2022-09-09T12:54:54;15.70;99.90
5940;DHT22;2995;-31.998;115.906;2022-09-09T12:57:26;15.60;99.90
5940;DHT22;2995;-31.998;115.906;2022-09-09T13:00:07;15.60;99.90
5940;DHT22;2995;-31.998;115.906;2022-09-09T13:02:48;15.60;99.90
5940;DHT22;2995;-31.998;115.906;2022-09-09T13:05:22;15.60;99.90
5940;DHT22;2995;-31.998;115.906;2022-09-09T13:08:02;15.60;99.90
5940;DHT22;2995;-31.998;115.906;2022-09-09T13:10:37;15.60;99.90
5940;DHT22;2995;-31.998;115.906;2022-09-09T13:13:15;15.50;99.90
5940;DHT22;2995;-31.998;115.906;2022-09-09T13:15:52;15.50;99.90
5940;DHT22;2995;-31.998;115.906;2022-09-09T13:18:29;15.50;99.90
5940;DHT22;2995;-31.998;115.906;2022-09-09T13:21:01;15.50;99.90
5940;DHT22;2995;-31.998;115.906;2022-09-09T13:23:33;15.40;99.90
5940;DHT22;2995;-31.998;115.906;2022-09-09T13:26:19;15.40;99.90
5940;DHT22;2995;-31.998;115.906;2022-09-09T13:28:52;15.40;99.90
5940;DHT22;2995;-31.998;115.906;2022-09-09T13:31:28;15.40;99.90
5940;DHT22;2995;-31.998;115.906;2022-09-09T13:34:00;15.30;99.90
5940;DHT22;2995;-31.998;115.906;2022-09-09T13:36:41;15.30;99.90
5940;DHT22;2995;-31.998;115.906;2022-09-09T13:39:18;15.30;99.90
5940;DHT22;2995;-31.998;115.906;2022-09-09T13:41:51;15.30;99.90
5940;DHT22;2995;-31.998;115.906;2022-09-09T13:44:25;15.30;99.90
5940;DHT22;2995;-31.998;115.906;2022-09-09T13:47:04;15.30;99.90
5940;DHT22;2995;-31.998;115.906;2022-09-09T13:49:36;15.20;99.90
5940;DHT22;2995;-31.998;115.906;2022-09-09T13:52:11;15.20;99.90
5940;DHT22;2995;-31.998;115.906;2022-09-09T13:54:42;15.20;99.90
5940;DHT22;2995;-31.998;115.906;2022-09-09T13:57:18;15.20;99.90
5940;DHT22;2995;-31.998;115.906;2022-09-09T13:59:50;15.20;99.90
5940;DHT22;2995;-31.998;115.906;2022-09-09T14:02:22;15.20;99.90
5940;DHT22;2995;-31.998;115.906;2022-09-09T14:04:53;15.20;99.90
5940;DHT22;2995;-31.998;115.906;2022-09-09T14:07:25;15.10;99.90
5940;DHT22;2995;-31.998;115.906;2022-09-09T14:09:56;15.00;99.90
5940;DHT22;2995;-31.998;115.906;2022-09-09T14:12:30;15.00;99.90
5940;DHT22;2995;-31.998;115.906;2022-09-09T14:15:01;14.90;99.90
5940;DHT22;2995;-31.998;115.906;2022-09-09T14:17:32;14.80;99.90
5940;DHT22;2995;-31.998;115.906;2022-09-09T14:20:04;14.80;99.90
5940;DHT22;2995;-31.998;115.906;2022-09-09T14:22:37;14.80;99.90
5940;DHT22;2995;-31.998;115.906;2022-09-09T14:25:09;14.70;99.90
5940;DHT22;2995;-31.998;115.906;2022-09-09T14:27:43;14.60;99.90
5940;DHT22;2995;-31.998;115.906;2022-09-09T14:30:15;14.50;99.90
5940;DHT22;2995;-31.998;115.906;2022-09-09T14:32:46;14.50;99.90
5940;DHT22;2995;-31.998;115.906;2022-09-09T14:35:17;14.40;99.90
5940;DHT22;2995;-31.998;115.906;2022-09-09T14:37:48;14.40;99.90
5940;DHT22;2995;-31.998;115.906;2022-09-09T14:40:19;14.30;99.90
5940;DHT22;2995;-31.998;115.906;2022-09-09T14:42:53;14.20;99.90
5940;DHT22;2995;-31.998;115.906;2022-09-09T14:45:25;14.20;99.90
5940;DHT22;2995;-31.998;115.906;2022-09-09T14:47:56;14.10;99.90
5940;DHT22;2995;-31.998;115.906;2022-09-09T14:50:27;14.10;99.90
5940;DHT22;2995;-31.998;115.906;2022-09-09T14:52:58;14.10;99.90
5940;DHT22;2995;-31.998;115.906;2022-09-09T14:55:30;14.00;99.90
5940;DHT22;2995;-31.998;115.906;2022-09-09T14:58:03;13.90;99.90
5940;DHT22;2995;-31.998;115.906;2022-09-09T15:00:34;13.90;99.90
5940;DHT22;2995;-31.998;115.906;2022-09-09T15:03:05;13.90;99.90
5940;DHT22;2995;-31.998;115.906;2022-09-09T15:05:38;13.80;99.90
5940;DHT22;2995;-31.998;115.906;2022-09-09T15:08:09;13.80;99.90
5940;DHT22;2995;-31.998;115.906;2022-09-09T15:10:41;13.80;99.90
5940;DHT22;2995;-31.998;115.906;2022-09-09T15:13:16;13.80;99.90
5940;DHT22;2995;-31.998;115.906;2022-09-09T15:15:47;13.70;99.90
5940;DHT22;2995;-31.998;115.906;2022-09-09T15:18:19;13.70;99.90
5940;DHT22;2995;-31.998;115.906;2022-09-09T15:20:50;13.70;99.90
5940;DHT22;2995;-31.998;115.906;2022-09-09T15:23:25;13.70;99.90
5940;DHT22;2995;-31.998;115.906;2022-09-09T15:25:56;13.60;99.90
5940;DHT22;2995;-31.998;115.906;2022-09-09T15:28:31;13.60;99.90
5940;DHT22;2995;-31.998;115.906;2022-09-09T15:31:07;13.60;99.90
5940;DHT22;2995;-31.998;115.906;2022-09-09T15:33:39;13.60;99.90
5940;DHT22;2995;-31.998;115.906;2022-09-09T15:36:16;13.60;99.90
5940;DHT22;2995;-31.998;115.906;2022-09-09T15:38:47;13.50;99.90
5940;DHT22;2995;-31.998;115.906;2022-09-09T15:41:19;13.50;99.90
5940;DHT22;2995;-31.998;115.906;2022-09-09T15:43:55;13.40;99.90
5940;DHT22;2995;-31.998;115.906;2022-09-09T15:46:29;13.50;99.90
5940;DHT22;2995;-31.998;115.906;2022-09-09T15:49:05;13.40;99.90
5940;DHT22;2995;-31.998;115.906;2022-09-09T15:51:37;13.40;99.90
5940;DHT22;2995;-31.998;115.906;2022-09-09T15:54:09;13.30;99.90
5940;DHT22;2995;-31.998;115.906;2022-09-09T15:56:41;13.30;99.90
5940;DHT22;2995;-31.998;115.906;2022-09-09T15:59:14;13.20;99.90
5940;DHT22;2995;-31.998;115.906;2022-09-09T16:01:45;13.20;99.90
5940;DHT22;2995;-31.998;115.906;2022-09-09T16:04:19;13.10;99.90
5940;DHT22;2995;-31.998;115.906;2022-09-09T16:06:52;13.10;99.90
5940;DHT22;2995;-31.998;115.906;2022-09-09T16:09:23;13.10;99.90
5940;DHT22;2995;-31.998;115.906;2022-09-09T16:11:56;13.00;99.90
5940;DHT22;2995;-31.998;115.906;2022-09-09T16:14:30;12.90;99.90
5940;DHT22;2995;-31.998;115.906;2022-09-09T16:17:04;12.90;99.90
5940;DHT22;2995;-31.998;115.906;2022-09-09T16:19:36;12.90;99.90
5940;DHT22;2995;-31.998;115.906;2022-09-09T16:22:07;12.80;99.90
5940;DHT22;2995;-31.998;115.906;2022-09-09T16:24:38;12.80;99.90